sensor_id;sensor_type;location;lat;lon;timestamp;temperature;humidity
19862;DHT22;10093;48.148;8.542;2023-09-18T00:01:27;15.30;99.90
19862;DHT22;10093;48.148;8.542;2023-09-18T00:03:53;15.20;99.90
19862;DHT22;10093;48.148;8.542;2023-09-18T00:06:19;15.30;99.90
19862;DHT22;10093;48.148;8.542;2023-09-18T00:08:45;15.20;99.90
19862;DHT22;10093;48.148;8.542;2023-09-18T00:11:10;15.00;99.90
19862;DHT22;10093;48.148;8.542;2023-09-18T00:13:37;14.80;99.90
19862;DHT22;10093;48.148;8.542;2023-09-18T00:16:03;14.70;99.90
19862;DHT22;10093;48.148;8.542;2023-09-18T00:18:29;14.60;99.90
19862;DHT22;10093;48.148;8.542;2023-09-18T00:20:55;14.70;99.90
19862;DHT22;10093;48.148;8.542;2023-09-18T00:23:20;14.60;99.90
19862;DHT22;10093;48.148;8.542;2023-09-18T00:25:46;14.90;99.90
19862;DHT22;10093;48.148;8.542;2023-09-18T00:28:12;15.00;99.90
19862;DHT22;10093;48.148;8.542;2023-09-18T00:30:42;14.90;99.90
19862;DHT22;10093;48.148;8.542;2023-09-18T00:33:08;14.90;99.90
19862;DHT22;10093;48.148;8.542;2023-09-18T00:35:34;14.90;99.90
19862;DHT22;10093;48.148;8.542;2023-09-18T00:37:59;14.90;99.90
19862;DHT22;10093;48.148;8.542;2023-09-18T00:40:29;14.90;99.90
19862;DHT22;10093;48.148;8.542;2023-09-18T00:42:55;15.00;99.90
19862;DHT22;10093;48.148;8.542;2023-09-18T00:45:20;15.30;99.90
19862;DHT22;10093;48.148;8.542;2023-09-18T00:47:46;15.20;99.90
19862;DHT22;10093;48.148;8.542;2023-09-18T00:50:13;15.20;99.90
19862;DHT22;10093;48.148;8.542;2023-09-18T00:52:39;15.60;99.90
19862;DHT22;10093;48.148;8.542;2023-09-18T00:55:06;15.70;99.90
19862;DHT22;10093;48.148;8.542;2023-09-18T00:57:32;15.70;99.90
19862;DHT22;10093;48.148;8.542;2023-09-18T00:59:58;15.60;99.90
19862;DHT22;10093;48.148;8.542;2023-09-18T01:02:24;15.30;99.90
19862;DHT22;10093;48.148;8.542;2023-09-18T01:04:49;15.30;99.90
19862;DHT22;10093;48.148;8.542;2023-09-18T01:07:15;15.40;99.90
19862;DHT22;10093;48.148;8.542;2023-09-18T01:09:41;15.60;99.90
19862;DHT22;10093;48.148;8.542;2023-09-18T01:13:00;15.40;99.90
19862;DHT22;10093;48.148;8.542;2023-09-18T01:15:26;15.60;99.90
19862;DHT22;10093;48.148;8.542;2023-09-18T01:17:52;15.30;99.90
19862;DHT22;10093;48.148;8.542;2023-09-18T01:20:18;15.50;99.90
19862;DHT22;10093;48.148;8.542;2023-09-18T01:22:44;15.40;99.90
19862;DHT22;10093;48.148;8.542;2023-09-18T01:25:09;15.40;99.90
19862;DHT22;10093;48.148;8.542;2023-09-18T01:27:35;15.70;99.90
19862;DHT22;10093;48.148;8.542;2023-09-18T01:30:01;15.50;99.90
19862;DHT22;10093;48.148;8.542;2023-09-18T01:32:29;15.60;99.90
19862;DHT22;10093;48.148;8.542;2023-09-18T01:34:57;15.50;99.90
19862;DHT22;10093;48.148;8.542;2023-09-18T01:37:30;15.60;99.90
19862;DHT22;10093;48.148;8.542;2023-09-18T01:39:56;15.70;99.90
19862;DHT22;10093;48.148;8.542;2023-09-18T01:42:26;15.60;99.90
19862;DHT22;10093;48.148;8.542;2023-09-18T01:44:53;15.50;99.90
19862;DHT22;10093;48.148;8.542;2023-09-18T01:47:21;15.50;99.90
19862;DHT22;10093;48.148;8.542;2023-09-18T01:49:49;15.60;99.90
19862;DHT22;10093;48.148;8.542;2023-09-18T01:52:15;15.40;99.90
19862;DHT22;10093;48.148;8.542;2023-09-18T01:54:40;15.50;99.90
19862;DHT22;10093;48.148;8.542;2023-09-18T01:57:06;15.40;99.90
19862;DHT22;10093;48.148;8.542;2023-09-18T01:59:35;15.50;99.90
19862;DHT22;10093;48.148;8.542;2023-09-18T02:02:00;15.70;99.90
19862;DHT22;10093;48.148;8.542;2023-09-18T02:04:29;15.80;99.90
19862;DHT22;10093;48.148;8.542;2023-09-18T02:06:56;16.00;99.90
19862;DHT22;10093;48.148;8.542;2023-09-18T02:09:22;16.10;99.90
19862;DHT22;10093;48.148;8.542;2023-09-18T02:11:48;16.10;99.90
19862;DHT22;10093;48.148;8.542;2023-09-18T02:14:14;16.00;99.90
19862;DHT22;10093;48.148;8.542;2023-09-18T02:16:41;16.00;99.90
19862;DHT22;10093;48.148;8.542;2023-09-18T02:19:11;15.90;99.90
19862;DHT22;10093;48.148;8.542;2023-09-18T02:21:37;15.60;99.90
19862;DHT22;10093;48.148;8.542;2023-09-18T02:24:03;15.40;99.90
19862;DHT22;10093;48.148;8.542;2023-09-18T02:26:29;15.60;99.90
19862;DHT22;10093;48.148;8.542;2023-09-18T02:29:00;15.50;99.90
19862;DHT22;10093;48.148;8.542;2023-09-18T02:31:26;15.30;99.90
19862;DHT22;10093;48.148;8.542;2023-09-18T02:33:52;15.20;99.90
19862;DHT22;10093;48.148;8.542;2023-09-18T02:36:18;15.20;99.90
19862;DHT22;10093;48.148;8.542;2023-09-18T02:38:43;15.00;99.90
19862;DHT22;10093;48.148;8.542;2023-09-18T02:41:09;15.00;99.90
19862;DHT22;10093;48.148;8.542;2023-09-18T02:43:35;14.90;99.90
19862;DHT22;10093;48.148;8.542;2023-09-18T02:46:03;14.80;99.90
19862;DHT22;10093;48.148;8.542;2023-09-18T02:48:29;15.00;99.90
19862;DHT22;10093;48.148;8.542;2023-09-18T02:50:55;15.20;99.90
19862;DHT22;10093;48.148;8.542;2023-09-18T02:53:21;15.10;99.90
19862;DHT22;10093;48.148;8.542;2023-09-18T02:55:50;15.20;99.90
19862;DHT22;10093;48.148;8.542;2023-09-18T02:58:15;15.10;99.90
19862;DHT22;10093;48.148;8.542;2023-09-18T03:00:47;15.40;99.90
19862;DHT22;10093;48.148;8.542;2023-09-18T03:03:14;15.30;99.90
19862;DHT22;10093;48.148;8.542;2023-09-18T03:05:40;15.60;99.90
19862;DHT22;10093;48.148;8.542;2023-09-18T03:08:07;15.80;99.90
19862;DHT22;10093;48.148;8.542;2023-09-18T03:10:40;15.70;99.90
19862;DHT22;10093;48.148;8.542;2023-09-18T03:13:07;15.80;99.90
19862;DHT22;10093;48.148;8.542;2023-09-18T03:15:34;15.90;99.90
19862;DHT22;10093;48.148;8.542;2023-09-18T03:18:00;16.00;99.90
19862;DHT22;10093;48.148;8.542;2023-09-18T03:20:27;16.00;99.90
19862;DHT22;10093;48.148;8.542;2023-09-18T03:22:56;15.90;99.90
19862;DHT22;10093;48.148;8.542;2023-09-18T03:25:22;15.90;99.90
19862;DHT22;10093;48.148;8.542;2023-09-18T03:27:50;15.80;99.90
19862;DHT22;10093;48.148;8.542;2023-09-18T03:30:16;15.80;99.90
19862;DHT22;10093;48.148;8.542;2023-09-18T03:32:42;15.90;99.90
19862;DHT22;10093;48.148;8.542;2023-09-18T03:35:08;16.20;99.90
19862;DHT22;10093;48.148;8.542;2023-09-18T03:37:41;16.50;99.90
19862;DHT22;10093;48.148;8.542;2023-09-18T03:40:08;16.70;99.90
19862;DHT22;10093;48.148;8.542;2023-09-18T03:42:34;16.90;99.90
19862;DHT22;10093;48.148;8.542;2023-09-18T03:44:59;17.00;99.90
19862;DHT22;10093;48.148;8.542;2023-09-18T03:47:25;17.10;99.90
19862;DHT22;10093;48.148;8.542;2023-09-18T03:49:51;17.10;99.90
19862;DHT22;10093;48.148;8.542;2023-09-18T03:52:16;17.10;99.90
19862;DHT22;10093;48.148;8.542;2023-09-18T03:54:42;17.10;99.90
19862;DHT22;10093;48.148;8.542;2023-09-18T03:57:08;17.20;99.90
19862;DHT22;10093;48.148;8.542;2023-09-18T03:59:33;17.20;99.90
19862;DHT22;10093;48.148;8.542;2023-09-18T04:01:59;17.20;99.90
19862;DHT22;10093;48.148;8.542;2023-09-18T04:04:24;17.20;99.90
19862;DHT22;10093;48.148;8.542;2023-09-18T04:06:50;17.40;99.90
19862;DHT22;10093;48.148;8.542;2023-09-18T04:09:15;17.40;99.90
19862;DHT22;10093;48.148;8.542;2023-09-18T04:11:41;17.40;99.90
19862;DHT22;10093;48.148;8.542;2023-09-18T04:14:07;17.60;99.90
19862;DHT22;10093;48.148;8.542;2023-09-18T04:16:32;17.50;99.90
19862;DHT22;10093;48.148;8.542;2023-09-18T04:19:02;17.40;99.90
19862;DHT22;10093;48.148;8.542;2023-09-18T04:21:28;17.30;99.90
19862;DHT22;10093;48.148;8.542;2023-09-18T04:23:55;17.20;99.90
19862;DHT22;10093;48.148;8.542;2023-09-18T04:26:26;17.00;99.90
19862;DHT22;10093;48.148;8.542;2023-09-18T04:29:00;17.10;99.90
19862;DHT22;10093;48.148;8.542;2023-09-18T04:31:26;17.00;99.90
19862;DHT22;10093;48.148;8.542;2023-09-18T04:33:53;16.80;99.90
19862;DHT22;10093;48.148;8.542;2023-09-18T04:36:18;16.60;99.90
19862;DHT22;10093;48.148;8.542;2023-09-18T04:38:44;16.50;99.90
19862;DHT22;10093;48.148;8.542;2023-09-18T04:41:10;16.60;99.90
19862;DHT22;10093;48.148;8.542;2023-09-18T04:43:40;16.50;99.90
19862;DHT22;10093;48.148;8.542;2023-09-18T04:46:05;16.50;99.90
19862;DHT22;10093;48.148;8.542;2023-09-18T04:48:32;16.60;99.90
19862;DHT22;10093;48.148;8.542;2023-09-18T04:50:58;16.60;99.90
19862;DHT22;10093;48.148;8.542;2023-09-18T04:53:24;16.60;99.90
19862;DHT22;10093;48.148;8.542;2023-09-18T04:55:50;16.60;99.90
19862;DHT22;10093;48.148;8.542;2023-09-18T04:58:22;16.70;99.90
19862;DHT22;10093;48.148;8.542;2023-09-18T05:00:58;16.70;99.90
19862;DHT22;10093;48.148;8.542;2023-09-18T05:03:28;16.70;99.90
19862;DHT22;10093;48.148;8.542;2023-09-18T05:05:54;16.60;99.90
19862;DHT22;10093;48.148;8.542;2023-09-18T05:08:20;16.60;99.90
19862;DHT22;10093;48.148;8.542;2023-09-18T05:10:46;16.70;99.90
19862;DHT22;10093;48.148;8.542;2023-09-18T05:13:13;16.70;99.90
19862;DHT22;10093;48.148;8.542;2023-09-18T05:15:38;16.70;99.90
19862;DHT22;10093;48.148;8.542;2023-09-18T05:18:04;16.90;99.90
19862;DHT22;10093;48.148;8.542;2023-09-18T05:20:30;16.90;99.90
19862;DHT22;10093;48.148;8.542;2023-09-18T05:22:57;16.80;99.90
19862;DHT22;10093;48.148;8.542;2023-09-18T05:25:24;16.80;99.90
19862;DHT22;10093;48.148;8.542;2023-09-18T05:27:54;16.80;99.90
19862;DHT22;10093;48.148;8.542;2023-09-18T05:30:28;16.90;99.90
19862;DHT22;10093;48.148;8.542;2023-09-18T05:32:58;16.90;99.90
19862;DHT22;10093;48.148;8.542;2023-09-18T05:35:30;17.10;99.90
19862;DHT22;10093;48.148;8.542;2023-09-18T05:37:56;17.00;99.90
19862;DHT22;10093;48.148;8.542;2023-09-18T05:40:24;17.00;99.90
19862;DHT22;10093;48.148;8.542;2023-09-18T05:42:54;17.00;99.90
19862;DHT22;10093;48.148;8.542;2023-09-18T05:45:20;17.10;99.90
19862;DHT22;10093;48.148;8.542;2023-09-18T05:47:47;17.00;99.90
19862;DHT22;10093;48.148;8.542;2023-09-18T05:50:13;16.80;99.90
19862;DHT22;10093;48.148;8.542;2023-09-18T05:52:43;16.70;99.90
19862;DHT22;10093;48.148;8.542;2023-09-18T05:55:09;16.70;99.90
19862;DHT22;10093;48.148;8.542;2023-09-18T05:57:35;16.60;99.90
19862;DHT22;10093;48.148;8.542;2023-09-18T06:00:01;16.50;99.90
19862;DHT22;10093;48.148;8.542;2023-09-18T06:02:27;16.70;99.90
19862;DHT22;10093;48.148;8.542;2023-09-18T06:04:59;16.70;99.90
19862;DHT22;10093;48.148;8.542;2023-09-18T06:07:28;16.60;99.90
19862;DHT22;10093;48.148;8.542;2023-09-18T06:09:55;16.50;99.90
19862;DHT22;10093;48.148;8.542;2023-09-18T06:12:21;16.50;99.90
19862;DHT22;10093;48.148;8.542;2023-09-18T06:14:47;16.60;99.90
19862;DHT22;10093;48.148;8.542;2023-09-18T06:17:13;16.70;99.90
19862;DHT22;10093;48.148;8.542;2023-09-18T06:19:43;16.70;99.90
19862;DHT22;10093;48.148;8.542;2023-09-18T06:22:09;16.60;99.90
19862;DHT22;10093;48.148;8.542;2023-09-18T06:24:35;16.50;99.90
19862;DHT22;10093;48.148;8.542;2023-09-18T06:27:00;16.60;99.90
19862;DHT22;10093;48.148;8.542;2023-09-18T06:29:26;16.70;99.90
19862;DHT22;10093;48.148;8.542;2023-09-18T06:31:52;16.80;99.90
19862;DHT22;10093;48.148;8.542;2023-09-18T06:34:17;16.70;99.90
19862;DHT22;10093;48.148;8.542;2023-09-18T06:36:43;16.80;99.90
19862;DHT22;10093;48.148;8.542;2023-09-18T06:39:08;16.80;99.90
19862;DHT22;10093;48.148;8.542;2023-09-18T06:41:34;16.80;99.90
19862;DHT22;10093;48.148;8.542;2023-09-18T06:44:00;16.80;99.90
19862;DHT22;10093;48.148;8.542;2023-09-18T06:46:29;16.80;99.90
19862;DHT22;10093;48.148;8.542;2023-09-18T06:48:55;16.80;99.90
19862;DHT22;10093;48.148;8.542;2023-09-18T06:51:22;16.80;99.90
19862;DHT22;10093;48.148;8.542;2023-09-18T06:53:48;16.80;99.90
19862;DHT22;10093;48.148;8.542;2023-09-18T06:56:14;16.60;99.90
19862;DHT22;10093;48.148;8.542;2023-09-18T06:58:39;16.50;99.90
19862;DHT22;10093;48.148;8.542;2023-09-18T07:01:05;16.50;99.90
19862;DHT22;10093;48.148;8.542;2023-09-18T07:03:35;16.40;99.90
19862;DHT22;10093;48.148;8.542;2023-09-18T07:06:02;16.60;99.90
19862;DHT22;10093;48.148;8.542;2023-09-18T07:08:27;16.60;99.90
19862;DHT22;10093;48.148;8.542;2023-09-18T07:10:53;16.50;99.90
19862;DHT22;10093;48.148;8.542;2023-09-18T07:13:19;16.30;99.90
19862;DHT22;10093;48.148;8.542;2023-09-18T07:15:44;16.30;99.90
19862;DHT22;10093;48.148;8.542;2023-09-18T07:18:10;16.30;99.90
19862;DHT22;10093;48.148;8.542;2023-09-18T07:20:48;16.30;99.90
19862;DHT22;10093;48.148;8.542;2023-09-18T07:23:14;16.40;99.90
19862;DHT22;10093;48.148;8.542;2023-09-18T07:25:40;16.50;99.90
19862;DHT22;10093;48.148;8.542;2023-09-18T07:28:08;16.70;99.90
19862;DHT22;10093;48.148;8.542;2023-09-18T07:30:34;16.60;99.90
19862;DHT22;10093;48.148;8.542;2023-09-18T07:33:02;16.40;99.90
19862;DHT22;10093;48.148;8.542;2023-09-18T07:35:28;16.20;99.90
19862;DHT22;10093;48.148;8.542;2023-09-18T07:37:54;16.10;99.90
19862;DHT22;10093;48.148;8.542;2023-09-18T07:40:20;16.00;99.90
19862;DHT22;10093;48.148;8.542;2023-09-18T07:42:46;15.90;99.90
19862;DHT22;10093;48.148;8.542;2023-09-18T07:45:12;15.90;99.90
19862;DHT22;10093;48.148;8.542;2023-09-18T07:47:38;15.80;99.90
19862;DHT22;10093;48.148;8.542;2023-09-18T07:50:05;15.70;99.90
19862;DHT22;10093;48.148;8.542;2023-09-18T07:52:30;15.70;99.90
19862;DHT22;10093;48.148;8.542;2023-09-18T07:54:57;15.70;99.90
19862;DHT22;10093;48.148;8.542;2023-09-18T07:57:23;15.80;99.90
19862;DHT22;10093;48.148;8.542;2023-09-18T07:59:50;16.00;99.90
19862;DHT22;10093;48.148;8.542;2023-09-18T08:02:16;16.00;99.90
19862;DHT22;10093;48.148;8.542;2023-09-18T08:04:42;16.10;99.90
19862;DHT22;10093;48.148;8.542;2023-09-18T08:07:08;16.20;99.90
19862;DHT22;10093;48.148;8.542;2023-09-18T08:09:34;16.10;99.90
19862;DHT22;10093;48.148;8.542;2023-09-18T08:12:06;16.00;99.90
19862;DHT22;10093;48.148;8.542;2023-09-18T08:14:31;15.90;99.90
19862;DHT22;10093;48.148;8.542;2023-09-18T08:16:58;15.80;99.90
19862;DHT22;10093;48.148;8.542;2023-09-18T08:19:25;15.70;99.90
19862;DHT22;10093;48.148;8.542;2023-09-18T08:21:54;15.90;99.90
19862;DHT22;10093;48.148;8.542;2023-09-18T08:24:25;16.00;99.90
19862;DHT22;10093;48.148;8.542;2023-09-18T08:26:51;16.20;99.90
19862;DHT22;10093;48.148;8.542;2023-09-18T08:29:16;16.20;99.90
19862;DHT22;10093;48.148;8.542;2023-09-18T08:31:43;16.00;99.90
19862;DHT22;10093;48.148;8.542;2023-09-18T08:34:08;15.80;99.90
19862;DHT22;10093;48.148;8.542;2023-09-18T08:36:34;15.90;99.90
19862;DHT22;10093;48.148;8.542;2023-09-18T08:38:59;15.90;99.90
19862;DHT22;10093;48.148;8.542;2023-09-18T08:41:28;15.80;99.90
19862;DHT22;10093;48.148;8.542;2023-09-18T08:44:02;16.00;99.90
19862;DHT22;10093;48.148;8.542;2023-09-18T08:46:29;16.00;99.90
19862;DHT22;10093;48.148;8.542;2023-09-18T08:48:55;16.10;99.90
19862;DHT22;10093;48.148;8.542;2023-09-18T08:51:22;16.30;99.90
19862;DHT22;10093;48.148;8.542;2023-09-18T08:53:48;16.50;99.90
19862;DHT22;10093;48.148;8.542;2023-09-18T08:56:15;16.60;99.90
19862;DHT22;10093;48.148;8.542;2023-09-18T08:58:43;16.60;99.90
19862;DHT22;10093;48.148;8.542;2023-09-18T09:01:10;16.60;99.90
19862;DHT22;10093;48.148;8.542;2023-09-18T09:03:40;16.60;99.90
19862;DHT22;10093;48.148;8.542;2023-09-18T09:06:07;16.60;99.90
19862;DHT22;10093;48.148;8.542;2023-09-18T09:08:34;16.50;99.90
19862;DHT22;10093;48.148;8.542;2023-09-18T09:11:00;16.50;99.90
19862;DHT22;10093;48.148;8.542;2023-09-18T09:13:26;16.50;99.90
19862;DHT22;10093;48.148;8.542;2023-09-18T09:15:57;16.50;99.90
19862;DHT22;10093;48.148;8.542;2023-09-18T09:18:24;16.50;99.90
19862;DHT22;10093;48.148;8.542;2023-09-18T09:23:28;16.60;99.90
19862;DHT22;10093;48.148;8.542;2023-09-18T09:25:56;16.70;99.90
19862;DHT22;10093;48.148;8.542;2023-09-18T09:28:37;16.70;99.90
19862;DHT22;10093;48.148;8.542;2023-09-18T09:31:03;16.70;99.90
19862;DHT22;10093;48.148;8.542;2023-09-18T09:33:29;16.70;99.90
19862;DHT22;10093;48.148;8.542;2023-09-18T09:35:56;16.70;99.90
19862;DHT22;10093;48.148;8.542;2023-09-18T09:38:29;16.60;99.90
19862;DHT22;10093;48.148;8.542;2023-09-18T09:40:57;16.60;99.90
19862;DHT22;10093;48.148;8.542;2023-09-18T09:43:25;16.60;99.90
19862;DHT22;10093;48.148;8.542;2023-09-18T09:46:00;16.60;99.90
19862;DHT22;10093;48.148;8.542;2023-09-18T09:48:26;16.30;99.90
19862;DHT22;10093;48.148;8.542;2023-09-18T09:50:52;16.30;99.90
19862;DHT22;10093;48.148;8.542;2023-09-18T09:56:10;16.50;99.90
19862;DHT22;10093;48.148;8.542;2023-09-18T09:58:35;16.50;99.90
19862;DHT22;10093;48.148;8.542;2023-09-18T10:01:03;16.50;99.90
19862;DHT22;10093;48.148;8.542;2023-09-18T10:03:35;16.60;99.90
19862;DHT22;10093;48.148;8.542;2023-09-18T10:06:03;16.60;99.90
19862;DHT22;10093;48.148;8.542;2023-09-18T10:08:30;16.80;99.90
19862;DHT22;10093;48.148;8.542;2023-09-18T10:11:07;16.80;99.90
19862;DHT22;10093;48.148;8.542;2023-09-18T10:13:54;16.90;99.90
19862;DHT22;10093;48.148;8.542;2023-09-18T10:16:22;16.90;99.90
19862;DHT22;10093;48.148;8.542;2023-09-18T10:19:21;16.90;99.90
19862;DHT22;10093;48.148;8.542;2023-09-18T10:24:23;16.80;99.90
19862;DHT22;10093;48.148;8.542;2023-09-18T10:27:01;16.70;99.90
19862;DHT22;10093;48.148;8.542;2023-09-18T10:29:32;16.70;99.90
19862;DHT22;10093;48.148;8.542;2023-09-18T10:31:58;16.70;99.90
19862;DHT22;10093;48.148;8.542;2023-09-18T10:34:24;16.60;99.90
19862;DHT22;10093;48.148;8.542;2023-09-18T10:36:52;16.70;99.90
19862;DHT22;10093;48.148;8.542;2023-09-18T10:39:18;16.60;99.90
19862;DHT22;10093;48.148;8.542;2023-09-18T10:41:52;16.50;99.90
19862;DHT22;10093;48.148;8.542;2023-09-18T10:44:18;16.50;99.90
19862;DHT22;10093;48.148;8.542;2023-09-18T10:46:49;16.40;99.90
19862;DHT22;10093;48.148;8.542;2023-09-18T10:49:15;16.30;99.90
19862;DHT22;10093;48.148;8.542;2023-09-18T10:51:43;16.50;99.90
19862;DHT22;10093;48.148;8.542;2023-09-18T10:54:10;16.50;99.90
19862;DHT22;10093;48.148;8.542;2023-09-18T10:56:36;16.60;99.90
19862;DHT22;10093;48.148;8.542;2023-09-18T10:59:02;16.50;99.90
19862;DHT22;10093;48.148;8.542;2023-09-18T11:01:31;16.50;99.90
19862;DHT22;10093;48.148;8.542;2023-09-18T11:04:07;16.40;99.90
19862;DHT22;10093;48.148;8.542;2023-09-18T11:09:23;16.10;99.90
19862;DHT22;10093;48.148;8.542;2023-09-18T11:11:53;16.10;99.90
19862;DHT22;10093;48.148;8.542;2023-09-18T11:14:23;16.20;99.90
19862;DHT22;10093;48.148;8.542;2023-09-18T11:16:49;16.30;99.90
19862;DHT22;10093;48.148;8.542;2023-09-18T11:19:18;16.30;99.90
19862;DHT22;10093;48.148;8.542;2023-09-18T11:21:45;16.50;99.90
19862;DHT22;10093;48.148;8.542;2023-09-18T11:24:21;16.50;99.90
19862;DHT22;10093;48.148;8.542;2023-09-18T11:26:49;16.60;99.90
19862;DHT22;10093;48.148;8.542;2023-09-18T11:29:21;16.60;99.90
19862;DHT22;10093;48.148;8.542;2023-09-18T11:31:55;16.60;99.90
19862;DHT22;10093;48.148;8.542;2023-09-18T11:34:25;16.40;99.90
19862;DHT22;10093;48.148;8.542;2023-09-18T11:36:57;16.50;99.90
19862;DHT22;10093;48.148;8.542;2023-09-18T11:39:41;16.90;99.90
19862;DHT22;10093;48.148;8.542;2023-09-18T11:42:17;17.00;99.90
19862;DHT22;10093;48.148;8.542;2023-09-18T11:44:43;17.30;99.90
19862;DHT22;10093;48.148;8.542;2023-09-18T11:47:13;17.20;99.90
19862;DHT22;10093;48.148;8.542;2023-09-18T11:49:53;17.80;99.90
19862;DHT22;10093;48.148;8.542;2023-09-18T11:52:21;18.60;99.90
19862;DHT22;10093;48.148;8.542;2023-09-18T11:54:47;19.30;99.90
19862;DHT22;10093;48.148;8.542;2023-09-18T11:57:13;19.90;99.90
19862;DHT22;10093;48.148;8.542;2023-09-18T11:59:40;19.80;99.90
19862;DHT22;10093;48.148;8.542;2023-09-18T12:02:08;19.20;99.90
19862;DHT22;10093;48.148;8.542;2023-09-18T12:04:35;18.50;99.90
19862;DHT22;10093;48.148;8.542;2023-09-18T12:07:04;18.40;99.90
19862;DHT22;10093;48.148;8.542;2023-09-18T12:09:31;18.20;99.90
19862;DHT22;10093;48.148;8.542;2023-09-18T12:12:01;18.10;99.90
19862;DHT22;10093;48.148;8.542;2023-09-18T12:14:32;18.20;99.90
19862;DHT22;10093;48.148;8.542;2023-09-18T12:17:00;18.50;99.90
19862;DHT22;10093;48.148;8.542;2023-09-18T12:19:26;18.40;99.90
19862;DHT22;10093;48.148;8.542;2023-09-18T12:21:52;18.80;99.90
19862;DHT22;10093;48.148;8.542;2023-09-18T12:24:22;19.00;99.90
19862;DHT22;10093;48.148;8.542;2023-09-18T12:26:48;18.40;99.90
19862;DHT22;10093;48.148;8.542;2023-09-18T12:29:14;18.40;99.90
19862;DHT22;10093;48.148;8.542;2023-09-18T12:31:41;18.50;99.90
19862;DHT22;10093;48.148;8.542;2023-09-18T12:34:34;18.70;99.90
19862;DHT22;10093;48.148;8.542;2023-09-18T12:37:00;18.90;99.90
19862;DHT22;10093;48.148;8.542;2023-09-18T12:39:32;19.10;99.90
19862;DHT22;10093;48.148;8.542;2023-09-18T12:41:57;19.30;99.90
19862;DHT22;10093;48.148;8.542;2023-09-18T12:44:23;19.50;99.90
19862;DHT22;10093;48.148;8.542;2023-09-18T12:46:49;19.60;99.90
19862;DHT22;10093;48.148;8.542;2023-09-18T12:49:23;19.30;99.90
19862;DHT22;10093;48.148;8.542;2023-09-18T12:51:58;19.10;99.90
19862;DHT22;10093;48.148;8.542;2023-09-18T12:57:06;18.70;99.90
19862;DHT22;10093;48.148;8.542;2023-09-18T12:59:33;18.90;99.90
19862;DHT22;10093;48.148;8.542;2023-09-18T13:02:02;18.70;99.90
19862;DHT22;10093;48.148;8.542;2023-09-18T13:04:33;18.70;99.90
19862;DHT22;10093;48.148;8.542;2023-09-18T13:07:14;18.90;99.90
19862;DHT22;10093;48.148;8.542;2023-09-18T13:09:41;19.10;99.90
19862;DHT22;10093;48.148;8.542;2023-09-18T13:12:07;19.00;99.90
19862;DHT22;10093;48.148;8.542;2023-09-18T13:14:58;19.00;99.90
19862;DHT22;10093;48.148;8.542;2023-09-18T13:17:53;19.10;99.90
19862;DHT22;10093;48.148;8.542;2023-09-18T13:20:21;18.90;99.90
19862;DHT22;10093;48.148;8.542;2023-09-18T13:22:51;19.20;99.90
19862;DHT22;10093;48.148;8.542;2023-09-18T13:25:22;19.50;99.90
19862;DHT22;10093;48.148;8.542;2023-09-18T13:27:48;19.60;99.90
19862;DHT22;10093;48.148;8.542;2023-09-18T13:30:14;19.40;99.90
19862;DHT22;10093;48.148;8.542;2023-09-18T13:32:42;19.70;99.90
19862;DHT22;10093;48.148;8.542;2023-09-18T13:35:09;19.60;99.90
19862;DHT22;10093;48.148;8.542;2023-09-18T13:37:37;19.90;99.90
19862;DHT22;10093;48.148;8.542;2023-09-18T13:40:04;19.40;99.90
19862;DHT22;10093;48.148;8.542;2023-09-18T13:42:33;19.10;99.90
19862;DHT22;10093;48.148;8.542;2023-09-18T13:44:59;19.30;99.90
19862;DHT22;10093;48.148;8.542;2023-09-18T13:47:30;19.20;99.90
19862;DHT22;10093;48.148;8.542;2023-09-18T13:49:56;19.40;99.90
19862;DHT22;10093;48.148;8.542;2023-09-18T13:52:29;19.80;99.90
19862;DHT22;10093;48.148;8.542;2023-09-18T13:54:55;19.70;99.90
19862;DHT22;10093;48.148;8.542;2023-09-18T13:57:21;19.80;99.90
19862;DHT22;10093;48.148;8.542;2023-09-18T13:59:49;19.70;99.90
19862;DHT22;10093;48.148;8.542;2023-09-18T14:02:15;19.60;99.90
19862;DHT22;10093;48.148;8.542;2023-09-18T14:04:41;19.50;99.90
19862;DHT22;10093;48.148;8.542;2023-09-18T14:07:08;19.30;99.90
19862;DHT22;10093;48.148;8.542;2023-09-18T14:09:34;19.40;99.90
19862;DHT22;10093;48.148;8.542;2023-09-18T14:12:01;19.30;99.90
19862;DHT22;10093;48.148;8.542;2023-09-18T14:14:26;19.10;99.90
19862;DHT22;10093;48.148;8.542;2023-09-18T14:16:52;19.20;99.90
19862;DHT22;10093;48.148;8.542;2023-09-18T14:19:19;19.20;99.90
19862;DHT22;10093;48.148;8.542;2023-09-18T14:21:44;19.00;99.90
19862;DHT22;10093;48.148;8.542;2023-09-18T14:24:11;19.00;99.90
19862;DHT22;10093;48.148;8.542;2023-09-18T14:26:37;18.40;99.90
19862;DHT22;10093;48.148;8.542;2023-09-18T14:29:11;18.60;99.90
19862;DHT22;10093;48.148;8.542;2023-09-18T14:31:37;18.80;99.90
19862;DHT22;10093;48.148;8.542;2023-09-18T14:34:03;18.70;99.90
19862;DHT22;10093;48.148;8.542;2023-09-18T14:36:34;18.80;99.90
19862;DHT22;10093;48.148;8.542;2023-09-18T14:39:00;18.80;99.90
19862;DHT22;10093;48.148;8.542;2023-09-18T14:41:27;18.90;99.90
19862;DHT22;10093;48.148;8.542;2023-09-18T14:43:53;19.00;99.90
19862;DHT22;10093;48.148;8.542;2023-09-18T14:46:18;18.80;99.90
19862;DHT22;10093;48.148;8.542;2023-09-18T14:48:45;18.80;99.90
19862;DHT22;10093;48.148;8.542;2023-09-18T14:51:11;18.80;99.90
19862;DHT22;10093;48.148;8.542;2023-09-18T14:53:37;18.90;99.90
19862;DHT22;10093;48.148;8.542;2023-09-18T14:56:02;18.80;99.90
19862;DHT22;10093;48.148;8.542;2023-09-18T14:58:29;18.90;99.90
19862;DHT22;10093;48.148;8.542;2023-09-18T15:00:56;18.90;99.90
19862;DHT22;10093;48.148;8.542;2023-09-18T15:03:22;19.00;99.90
19862;DHT22;10093;48.148;8.542;2023-09-18T15:05:50;18.60;99.90
19862;DHT22;10093;48.148;8.542;2023-09-18T15:08:16;18.30;99.90
19862;DHT22;10093;48.148;8.542;2023-09-18T15:10:43;18.20;99.90
19862;DHT22;10093;48.148;8.542;2023-09-18T15:13:09;18.20;99.90
19862;DHT22;10093;48.148;8.542;2023-09-18T15:15:34;18.20;99.90
19862;DHT22;10093;48.148;8.542;2023-09-18T15:18:01;18.20;99.90
19862;DHT22;10093;48.148;8.542;2023-09-18T15:20:27;18.10;99.90
19862;DHT22;10093;48.148;8.542;2023-09-18T15:22:52;18.20;99.90
19862;DHT22;10093;48.148;8.542;2023-09-18T15:25:21;18.30;99.90
19862;DHT22;10093;48.148;8.542;2023-09-18T15:27:47;18.20;99.90
19862;DHT22;10093;48.148;8.542;2023-09-18T15:30:13;18.30;99.90
19862;DHT22;10093;48.148;8.542;2023-09-18T15:32:52;18.20;99.90
19862;DHT22;10093;48.148;8.542;2023-09-18T15:35:22;18.30;99.90
19862;DHT22;10093;48.148;8.542;2023-09-18T15:37:48;18.30;99.90
19862;DHT22;10093;48.148;8.542;2023-09-18T15:40:15;18.30;99.90
19862;DHT22;10093;48.148;8.542;2023-09-18T15:42:42;18.20;99.90
19862;DHT22;10093;48.148;8.542;2023-09-18T15:45:08;18.20;99.90
19862;DHT22;10093;48.148;8.542;2023-09-18T15:47:40;18.30;99.90